Air Navigation Services of Czech Republic
Airport: LKTB Updated:  11.08.2020 01:30:26  UTC
 METAR LKTB 11.08. 01:30 ...
METAR LKTB 110130Z VRB01KT CAVOK 22/18 Q1017 NOSIG RMK REG QNH 1015=
 TAF LKTB 10.08. 23:00 ...
TAF LKTB 102300Z 1100/1206 36006KT CAVOK      TEMPO 1100/1121 05012KT 6000 SHRA SCT040TCU      PROB40 TEMPO 1109/1118 3000 TSRA SCT033CB      TEMPO 1202/1206 3500 BR NSC=